createdAt,value
2017-12-30T00:00:26.404Z,67.90
2017-12-30T00:02:19.455Z,69.71
2017-12-30T00:03:19.359Z,69.99
2017-12-30T00:05:12.372Z,69.99
2017-12-30T00:06:12.377Z,70.75
2017-12-30T00:08:05.367Z,71.60
2017-12-30T00:09:05.267Z,71.32
2017-12-30T00:10:58.184Z,71.41
2017-12-30T00:11:58.118Z,72.27
2017-12-30T00:13:51.167Z,74.35
2017-12-30T00:14:51.072Z,72.84
2017-12-30T00:16:43.986Z,73.97
2017-12-30T00:17:43.979Z,73.12
2017-12-30T00:19:36.804Z,70.75
2017-12-30T00:20:36.769Z,73.22
2017-12-30T00:22:29.821Z,74.54
2017-12-30T00:23:29.629Z,74.07
2017-12-30T00:25:22.506Z,73.12
2017-12-30T00:26:22.533Z,76.15
2017-12-30T00:28:15.385Z,73.50
2017-12-30T00:29:15.383Z,76.54
2017-12-30T00:31:08.271Z,76.34
2017-12-30T00:32:08.232Z,75.59
2017-12-30T00:34:01.225Z,77.11
2017-12-30T00:35:01.023Z,76.06
2017-12-30T00:36:53.972Z,77.29
2017-12-30T00:37:53.933Z,77.67
2017-12-30T00:39:46.921Z,74.35
2017-12-30T00:40:46.723Z,77.11
2017-12-30T00:42:39.604Z,78.72
2017-12-30T00:43:39.579Z,74.73
2017-12-30T00:45:32.525Z,77.48
2017-12-30T00:46:32.428Z,78.43
2017-12-30T00:48:25.373Z,77.11
2017-12-30T00:49:25.278Z,77.96
2017-12-30T00:51:18.222Z,78.05
2017-12-30T00:52:18.130Z,79.47
2017-12-30T00:54:11.071Z,78.24
2017-12-30T00:55:10.982Z,78.43
2017-12-30T00:57:04.024Z,79.00
2017-12-30T00:58:03.931Z,78.53
2017-12-30T00:59:56.911Z,79.47
2017-12-30T01:00:56.900Z,78.81
2017-12-30T01:02:49.937Z,80.71
2017-12-30T01:03:49.832Z,79.85
2017-12-30T01:05:42.816Z,78.72
2017-12-30T01:06:42.850Z,79.10
2017-12-30T01:08:35.943Z,81.27
2017-12-30T01:09:35.738Z,80.24
2017-12-30T01:11:28.719Z,80.24
2017-12-30T01:12:28.857Z,78.53
2017-12-30T01:14:21.854Z,81.94
2017-12-30T01:15:21.646Z,80.90
2017-12-30T01:17:14.636Z,80.24
2017-12-30T01:18:14.597Z,80.43
2017-12-30T01:20:07.610Z,78.72
2017-12-30T01:21:07.551Z,78.81
2017-12-30T01:23:00.712Z,80.99
2017-12-30T01:24:00.504Z,79.76
2017-12-30T01:25:53.519Z,81.27
2017-12-30T01:26:53.623Z,81.56
2017-12-30T01:28:46.437Z,82.32
2017-12-30T01:29:46.575Z,81.09
2017-12-30T01:31:39.327Z,82.89
2017-12-30T01:32:39.422Z,79.10
2017-12-30T01:34:32.424Z,81.09
2017-12-30T01:35:32.217Z,80.99
2017-12-30T01:37:25.367Z,80.52
2017-12-30T01:38:25.164Z,79.47
2017-12-30T01:40:18.149Z,80.95
2017-12-30T01:41:18.120Z,81.52
2017-12-30T01:43:11.272Z,79.44
2017-12-30T01:44:11.070Z,77.73
2017-12-30T01:46:04.053Z,80.48
2017-12-30T01:47:04.204Z,80.76
2017-12-30T01:48:57.465Z,82.75
2017-12-30T01:49:57.145Z,80.48
2017-12-30T01:51:49.962Z,81.05
2017-12-30T01:52:49.933Z,79.63
2017-12-30T01:54:42.944Z,79.15
2017-12-30T01:55:42.883Z,79.34
2017-12-30T01:57:35.938Z,79.06
2017-12-30T01:58:35.839Z,79.06
2017-12-30T02:00:28.862Z,81.43
2017-12-30T02:01:28.793Z,79.91
2017-12-30T02:03:21.946Z,80.76
2017-12-30T02:04:21.740Z,81.43
2017-12-30T02:06:14.895Z,79.53
2017-12-30T02:07:14.695Z,78.58
2017-12-30T02:09:07.681Z,79.53
2017-12-30T02:10:07.815Z,80.48
2017-12-30T02:12:00.799Z,79.34
2017-12-30T02:13:00.597Z,78.87
2017-12-30T02:14:53.751Z,79.72
2017-12-30T02:15:53.553Z,78.87
2017-12-30T02:17:46.707Z,79.25
2017-12-30T02:18:46.671Z,79.15
2017-12-30T02:20:39.490Z,78.96
2017-12-30T02:21:39.454Z,79.25
2017-12-30T02:23:32.475Z,78.39
2017-12-30T02:24:32.405Z,79.06
2017-12-30T02:26:25.579Z,78.77
2017-12-30T02:27:25.360Z,78.30
2017-12-30T02:29:18.375Z,79.91
2017-12-30T02:30:18.485Z,78.20
2017-12-30T02:32:11.474Z,79.06
2017-12-30T02:33:11.270Z,77.25
2017-12-30T02:35:04.285Z,78.39
2017-12-30T02:36:04.386Z,77.83
2017-12-30T02:37:57.274Z,77.54
2017-12-30T02:38:57.175Z,77.92
2017-12-30T02:40:50.335Z,77.16
2017-12-30T02:41:50.129Z,77.25
2017-12-30T02:43:43.192Z,80.00
2017-12-30T02:44:43.077Z,79.82
2017-12-30T02:46:36.098Z,79.91
2017-12-30T02:47:36.036Z,80.10
2017-12-30T02:49:29.018Z,78.96
2017-12-30T02:50:29.017Z,80.76
2017-12-30T02:52:23.070Z,80.95
2017-12-30T02:53:21.940Z,79.44
2017-12-30T02:55:15.002Z,79.91
2017-12-30T02:56:14.897Z,81.71
2017-12-30T02:58:07.805Z,80.67
2017-12-30T02:59:07.743Z,81.05
2017-12-30T03:01:00.693Z,80.19
2017-12-30T03:02:00.599Z,80.67
2017-12-30T03:03:53.510Z,79.82
2017-12-30T03:04:53.442Z,81.43
2017-12-30T03:08:17.967Z,80.00
2017-12-30T03:09:17.942Z,79.25
2017-12-30T03:11:10.994Z,80.86
2017-12-30T03:12:10.795Z,81.05
2017-12-30T03:14:03.740Z,80.67
2017-12-30T03:15:03.644Z,81.62
2017-12-30T03:16:56.558Z,80.29
2017-12-30T03:17:56.493Z,79.53
2017-12-30T03:19:49.380Z,80.29
2017-12-30T03:20:49.348Z,80.57
2017-12-30T03:22:42.393Z,79.25
2017-12-30T03:23:42.194Z,80.38
2017-12-30T03:25:35.152Z,80.10
2017-12-30T03:26:35.044Z,80.10
2017-12-30T03:28:28.099Z,80.57
2017-12-30T03:29:27.894Z,81.43
2017-12-30T03:31:20.781Z,81.33
2017-12-30T03:32:20.750Z,80.38
2017-12-30T03:34:13.801Z,81.62
2017-12-30T03:35:13.597Z,80.86
2017-12-30T03:37:06.547Z,80.67
2017-12-30T03:38:06.452Z,79.53
2017-12-30T03:39:59.396Z,81.62
2017-12-30T03:40:59.294Z,80.57
2017-12-30T03:42:52.177Z,81.05
2017-12-30T03:43:52.214Z,80.95
2017-12-30T03:45:45.065Z,80.95
2017-12-30T03:46:45.002Z,80.86
2017-12-30T03:48:38.047Z,80.86
2017-12-30T03:49:37.950Z,81.43
2017-12-30T03:51:31.002Z,80.00
2017-12-30T03:52:30.897Z,80.48
2017-12-30T03:54:23.959Z,81.05
2017-12-30T03:55:23.851Z,81.43
2017-12-30T03:57:16.903Z,81.99
2017-12-30T03:58:16.809Z,81.71
2017-12-30T04:00:09.799Z,80.67
2017-12-30T04:01:09.927Z,81.43
2017-12-30T04:03:02.919Z,81.52
2017-12-30T04:04:02.876Z,80.76
2017-12-30T04:05:55.765Z,82.18
2017-12-30T04:06:55.569Z,82.94
2017-12-30T04:08:49.229Z,82.94
2017-12-30T04:09:49.192Z,81.62
2017-12-30T04:11:42.182Z,81.24
2017-12-30T04:12:41.982Z,81.52
2017-12-30T04:14:34.999Z,82.47
2017-12-30T04:15:34.934Z,83.98
2017-12-30T04:17:27.920Z,81.71
2017-12-30T04:18:27.881Z,83.04
2017-12-30T04:20:20.908Z,82.75
2017-12-30T04:21:20.841Z,81.24
2017-12-30T04:23:13.997Z,81.62
2017-12-30T04:24:13.792Z,82.94
2017-12-30T04:26:06.798Z,82.75
2017-12-30T04:27:06.743Z,83.70
2017-12-30T04:28:59.906Z,82.37
2017-12-30T04:29:59.694Z,83.80
2017-12-30T04:31:52.704Z,81.71
2017-12-30T04:32:52.816Z,81.99
2017-12-30T04:34:45.636Z,82.18
2017-12-30T04:35:45.600Z,81.62
2017-12-30T04:37:38.761Z,83.89
2017-12-30T04:38:38.557Z,81.05
2017-12-30T04:40:31.709Z,82.37
2017-12-30T04:41:31.510Z,81.05
2017-12-30T04:43:24.665Z,81.71
2017-12-30T04:44:24.460Z,83.04
2017-12-30T04:46:17.448Z,83.42
2017-12-30T04:47:17.420Z,83.04
2017-12-30T04:49:10.431Z,82.94
2017-12-30T04:50:10.368Z,83.70
2017-12-30T04:52:03.537Z,83.70
2017-12-30T04:53:03.321Z,82.28
2017-12-30T04:54:56.478Z,82.85
2017-12-30T04:55:56.277Z,81.62
2017-12-30T04:57:49.429Z,82.37
2017-12-30T04:58:49.229Z,84.08
2017-12-30T05:00:42.379Z,83.98
2017-12-30T05:01:42.181Z,82.09
2017-12-30T05:03:35.340Z,83.51
2017-12-30T05:04:35.131Z,82.94
2017-12-30T05:06:28.144Z,82.28
2017-12-30T05:07:28.084Z,83.17
2017-12-30T05:09:21.236Z,82.94
2017-12-30T05:10:21.039Z,82.56
2017-12-30T05:12:14.193Z,83.46
2017-12-30T05:13:14.153Z,83.36
2017-12-30T05:15:06.977Z,84.31
2017-12-30T05:16:06.940Z,83.94
2017-12-30T05:17:59.954Z,83.27
2017-12-30T05:18:59.893Z,83.84
2017-12-30T05:20:53.052Z,82.98
2017-12-30T05:21:52.846Z,84.22
2017-12-30T05:23:46.004Z,83.74
2017-12-30T05:24:45.805Z,83.08
2017-12-30T05:26:38.958Z,84.03
2017-12-30T05:27:38.755Z,83.84
2017-12-30T05:29:31.906Z,84.22
2017-12-30T05:30:31.708Z,85.26
2017-12-30T05:32:24.780Z,84.69
2017-12-30T05:33:24.657Z,84.98
2017-12-30T05:35:17.816Z,84.22
2017-12-30T05:36:17.633Z,85.17
2017-12-30T05:38:10.663Z,83.65
2017-12-30T05:39:10.566Z,84.12
2017-12-30T05:41:03.574Z,84.22
2017-12-30T05:42:03.544Z,84.98
2017-12-30T05:43:56.500Z,81.66
2017-12-30T05:44:56.535Z,84.88
2017-12-30T05:46:49.630Z,82.13
2017-12-30T05:47:49.420Z,82.60
2017-12-30T05:49:42.411Z,80.43
2017-12-30T05:50:42.378Z,80.04
2017-12-30T05:52:35.392Z,78.15
2017-12-30T05:53:35.329Z,77.29
2017-12-30T05:55:28.388Z,77.01
2017-12-30T05:56:28.279Z,73.22
2017-12-30T05:58:21.200Z,77.20
2017-12-30T05:59:21.195Z,75.11
2017-12-30T06:01:14.086Z,73.31
2017-12-30T06:02:13.988Z,71.41
2017-12-30T06:04:06.902Z,69.80
2017-12-30T06:05:06.872Z,68.57
2017-12-30T06:06:59.885Z,65.91
2017-12-30T06:07:59.767Z,65.53
2017-12-30T06:09:52.704Z,64.11
2017-12-30T06:10:52.699Z,65.72
2017-12-30T06:12:45.524Z,64.87
2017-12-30T06:13:45.550Z,63.54
2017-12-30T06:15:38.543Z,63.35
2017-12-30T06:16:38.340Z,66.58
2017-12-30T06:18:31.220Z,61.93
2017-12-30T06:19:31.194Z,60.13
2017-12-30T06:21:24.108Z,62.40
2017-12-30T06:22:24.041Z,61.43
2017-12-30T06:24:16.925Z,60.13
2017-12-30T06:25:16.953Z,59.53
2017-12-30T06:27:09.844Z,58.58
2017-12-30T06:28:09.739Z,59.27
2017-12-30T06:30:02.694Z,57.09
2017-12-30T06:31:02.596Z,57.73
2017-12-30T06:32:55.540Z,57.95
2017-12-30T06:33:55.443Z,55.07
2017-12-30T06:35:48.397Z,56.49
2017-12-30T06:36:48.295Z,56.02
2017-12-30T06:38:41.242Z,55.64
2017-12-30T06:39:41.146Z,56.90
2017-12-30T06:41:34.194Z,58.14
2017-12-30T06:42:34.097Z,59.15
2017-12-30T06:44:27.145Z,56.34
2017-12-30T06:45:27.048Z,58.51
2017-12-30T06:47:20.036Z,55.29
2017-12-30T06:48:19.998Z,60.13
2017-12-30T06:50:13.058Z,56.68
2017-12-30T06:51:12.952Z,56.59
2017-12-30T06:53:05.935Z,56.62
2017-12-30T06:54:06.072Z,56.71
2017-12-30T06:55:58.823Z,57.47
2017-12-30T06:56:58.762Z,58.42
2017-12-30T06:58:51.638Z,56.90
2017-12-30T06:59:51.670Z,56.99
2017-12-30T07:01:44.529Z,57.95
2017-12-30T07:02:44.462Z,58.70
2017-12-30T07:04:37.377Z,61.08
2017-12-30T07:05:37.311Z,59.66
2017-12-30T07:07:30.358Z,57.95
2017-12-30T07:08:30.267Z,58.89
2017-12-30T07:10:23.146Z,57.47
2017-12-30T07:11:23.176Z,59.27
2017-12-30T07:13:16.061Z,55.76
2017-12-30T07:14:15.970Z,58.80
2017-12-30T07:16:08.852Z,58.04
2017-12-30T07:17:08.877Z,57.57
2017-12-30T07:19:01.743Z,59.08
2017-12-30T07:20:01.765Z,60.22
2017-12-30T07:21:54.618Z,59.75
2017-12-30T07:22:54.576Z,57.76
2017-12-30T07:24:47.416Z,57.66
2017-12-30T07:25:47.428Z,58.14
2017-12-30T07:27:40.282Z,57.66
2017-12-30T07:28:40.221Z,58.89
2017-12-30T07:30:33.167Z,57.85
2017-12-30T07:31:33.077Z,59.37
2017-12-30T07:33:26.012Z,56.90
2017-12-30T07:34:25.922Z,58.33
2017-12-30T07:36:18.872Z,57.47
2017-12-30T07:37:18.791Z,55.96
2017-12-30T07:39:11.649Z,55.38
2017-12-30T07:40:11.681Z,56.90
2017-12-30T07:42:04.567Z,56.43
2017-12-30T07:43:04.474Z,54.88
2017-12-30T07:44:57.357Z,54.15
2017-12-30T07:45:57.317Z,54.53
2017-12-30T07:47:50.246Z,53.75
2017-12-30T07:48:50.176Z,53.11
2017-12-30T07:50:43.054Z,52.16
2017-12-30T07:51:43.020Z,52.80
2017-12-30T07:53:35.932Z,51.97
2017-12-30T07:54:35.929Z,52.04
2017-12-30T07:56:28.758Z,52.61
2017-12-30T07:57:28.736Z,53.27
2017-12-30T07:59:21.635Z,52.14
2017-12-30T08:00:21.577Z,50.90
2017-12-30T08:02:14.523Z,51.76
2017-12-30T08:03:14.423Z,52.42
2017-12-30T08:05:07.339Z,50.52
2017-12-30T08:06:07.270Z,50.52
2017-12-30T08:08:00.152Z,50.07
2017-12-30T08:09:00.126Z,50.43
2017-12-30T08:10:53.042Z,51.21
2017-12-30T08:11:52.974Z,49.69
2017-12-30T08:13:45.925Z,50.83
2017-12-30T08:14:45.822Z,50.74
2017-12-30T08:16:38.789Z,49.79
2017-12-30T08:17:38.679Z,49.69
2017-12-30T08:19:32.068Z,49.98
2017-12-30T08:20:32.097Z,49.22
2017-12-30T08:22:24.958Z,49.41
2017-12-30T08:23:24.890Z,50.26
2017-12-30T08:25:17.842Z,49.32
2017-12-30T08:26:17.740Z,50.36
2017-12-30T08:28:10.688Z,50.64
2017-12-30T08:29:10.588Z,49.13
2017-12-30T08:31:03.482Z,51.12
2017-12-30T08:32:03.445Z,50.07
2017-12-30T08:33:56.354Z,50.55
2017-12-30T08:34:56.371Z,50.17
2017-12-30T08:36:49.241Z,50.26
2017-12-30T08:37:49.153Z,50.07
2017-12-30T08:39:42.105Z,49.79
2017-12-30T08:40:41.998Z,49.98
2017-12-30T08:42:35.964Z,49.98
2017-12-30T08:43:34.846Z,49.79
2017-12-30T08:45:27.758Z,48.75
2017-12-30T08:46:27.695Z,49.13
2017-12-30T08:48:20.647Z,47.99
2017-12-30T08:49:20.541Z,48.75
2017-12-30T08:51:13.970Z,49.13
2017-12-30T08:52:13.911Z,49.03
2017-12-30T08:54:06.893Z,48.75
2017-12-30T08:55:06.853Z,48.46
2017-12-30T08:56:59.769Z,48.94
2017-12-30T08:57:59.712Z,48.46
2017-12-30T08:59:52.587Z,48.65
2017-12-30T09:00:52.561Z,49.32
2017-12-30T09:02:45.475Z,47.80
2017-12-30T09:03:45.467Z,47.80
2017-12-30T09:05:39.380Z,47.61
2017-12-30T09:06:39.288Z,47.23
2017-12-30T09:08:32.196Z,47.42
2017-12-30T09:09:32.146Z,47.32
2017-12-30T09:11:25.089Z,47.73
2017-12-30T09:12:24.983Z,47.34
2017-12-30T09:14:17.901Z,46.69
2017-12-30T09:15:17.837Z,47.44
2017-12-30T09:17:10.785Z,47.34
2017-12-30T09:18:10.684Z,47.16
2017-12-30T09:20:03.597Z,47.34
2017-12-30T09:21:03.563Z,46.88
2017-12-30T09:22:56.432Z,46.88
2017-12-30T09:23:56.451Z,47.16
2017-12-30T09:25:49.299Z,46.78
2017-12-30T09:26:49.314Z,47.16
2017-12-30T09:28:42.194Z,46.78
2017-12-30T09:29:42.088Z,47.34
2017-12-30T09:31:35.001Z,46.21
2017-12-30T09:32:36.023Z,46.69
2017-12-30T09:34:27.822Z,46.21
2017-12-30T09:35:27.850Z,46.49
2017-12-30T09:37:20.740Z,46.11
2017-12-30T09:38:20.643Z,45.92
2017-12-30T09:40:13.523Z,46.78
2017-12-30T09:41:13.549Z,45.26
2017-12-30T09:43:06.410Z,45.73
2017-12-30T09:44:06.342Z,46.49
2017-12-30T09:45:59.291Z,45.83
2017-12-30T09:46:59.203Z,45.54
2017-12-30T09:48:52.106Z,44.69
2017-12-30T09:49:52.100Z,45.92
2017-12-30T09:51:44.992Z,44.79
2017-12-30T09:52:44.907Z,45.64
2017-12-30T09:54:37.837Z,45.54
2017-12-30T09:55:37.752Z,44.98
2017-12-30T09:57:30.624Z,44.79
2017-12-30T09:58:30.592Z,44.81
2017-12-30T10:00:23.505Z,44.50
2017-12-30T10:01:23.450Z,43.76
2017-12-30T10:03:16.324Z,43.67
2017-12-30T10:04:16.298Z,43.76
2017-12-30T10:06:09.217Z,43.57
2017-12-30T10:07:09.143Z,43.76
2017-12-30T10:09:02.088Z,43.67
2017-12-30T10:10:02.057Z,43.57
2017-12-30T10:11:54.867Z,43.67
2017-12-30T10:12:54.811Z,43.57
2017-12-30T10:14:47.641Z,43.67
2017-12-30T10:15:47.654Z,44.24
2017-12-30T10:17:40.545Z,43.86
2017-12-30T10:18:40.446Z,44.53
2017-12-30T10:20:33.330Z,43.67
2017-12-30T10:21:33.299Z,43.67
2017-12-30T10:23:26.239Z,43.57
2017-12-30T10:24:26.146Z,43.10
2017-12-30T10:26:19.028Z,43.38
2017-12-30T10:27:19.064Z,43.19
2017-12-30T10:29:11.982Z,43.29
2017-12-30T10:30:11.849Z,43.31
2017-12-30T10:32:04.796Z,43.50
2017-12-30T10:33:04.811Z,43.21
2017-12-30T10:34:57.612Z,43.48
2017-12-30T10:35:57.613Z,43.48
2017-12-30T10:37:50.427Z,42.82
2017-12-30T10:38:50.402Z,43.01
2017-12-30T10:40:43.346Z,42.82
2017-12-30T10:41:43.251Z,42.53
2017-12-30T10:43:36.196Z,42.63
2017-12-30T10:44:36.099Z,42.34
2017-12-30T10:46:29.016Z,41.98
2017-12-30T10:47:28.956Z,42.24
2017-12-30T10:49:21.866Z,42.05
2017-12-30T10:50:21.863Z,42.08
2017-12-30T10:52:14.766Z,41.60
2017-12-30T10:53:14.657Z,41.31
2017-12-30T10:55:07.571Z,41.69
2017-12-30T10:56:07.505Z,41.69
2017-12-30T10:58:00.449Z,41.89
2017-12-30T10:59:00.364Z,41.69
2017-12-30T11:00:53.303Z,41.60
2017-12-30T11:01:53.199Z,41.79
2017-12-30T11:03:46.114Z,41.41
2017-12-30T11:04:46.053Z,41.03
2017-12-30T11:06:39.005Z,41.13
2017-12-30T11:07:38.906Z,41.22
2017-12-30T11:09:31.847Z,41.31
2017-12-30T11:10:31.760Z,41.22
2017-12-30T11:12:24.702Z,40.94
2017-12-30T11:13:24.602Z,40.65
2017-12-30T11:15:17.549Z,40.58
2017-12-30T11:16:17.459Z,40.67
2017-12-30T11:18:10.405Z,40.67
2017-12-30T11:19:10.307Z,40.29
2017-12-30T11:21:03.212Z,40.20
2017-12-30T11:22:03.154Z,40.01
2017-12-30T11:23:56.103Z,40.01
2017-12-30T11:24:56.004Z,39.81
2017-12-30T11:26:49.974Z,39.55
2017-12-30T11:27:48.857Z,39.17
2017-12-30T11:29:41.807Z,38.98
2017-12-30T11:30:41.708Z,38.89
2017-12-30T11:32:35.679Z,38.62
2017-12-30T11:33:34.556Z,38.51
2017-12-30T11:35:27.462Z,38.71
2017-12-30T11:36:27.467Z,38.53
2017-12-30T11:38:20.307Z,39.57
2017-12-30T11:39:20.315Z,39.00
2017-12-30T11:41:13.162Z,38.62
2017-12-30T11:42:13.166Z,38.71
2017-12-30T11:44:06.088Z,38.71
2017-12-30T11:45:05.967Z,38.64
2017-12-30T11:46:58.866Z,39.69
2017-12-30T11:47:58.810Z,39.69
2017-12-30T11:49:51.687Z,39.97
2017-12-30T11:50:51.718Z,40.16
2017-12-30T11:52:44.569Z,40.45
2017-12-30T11:53:44.566Z,40.45
2017-12-30T11:55:37.418Z,40.16
2017-12-30T11:56:37.444Z,41.21
2017-12-30T11:58:30.243Z,40.18
2017-12-30T11:59:30.215Z,40.85
2017-12-30T12:01:23.172Z,41.42
2017-12-30T12:02:23.124Z,42.18
2017-12-30T12:04:15.942Z,43.23
2017-12-30T12:05:15.918Z,41.80
2017-12-30T12:07:08.814Z,43.99
2017-12-30T12:08:08.761Z,44.94
2017-12-30T12:10:02.183Z,43.61
2017-12-30T12:11:02.186Z,44.96
2017-12-30T12:12:55.072Z,45.35
2017-12-30T12:13:54.977Z,46.58
2017-12-30T12:15:47.880Z,46.01
2017-12-30T12:16:47.882Z,47.25
2017-12-30T12:18:40.728Z,47.92
2017-12-30T12:19:40.742Z,48.97
2017-12-30T12:21:33.588Z,46.97
2017-12-30T12:22:33.667Z,47.54
2017-12-30T12:24:26.946Z,50.49
2017-12-30T12:25:26.379Z,50.01
2017-12-30T12:27:19.298Z,50.42
2017-12-30T12:28:19.231Z,50.99
2017-12-30T12:30:12.176Z,51.64
2017-12-30T12:31:12.136Z,52.14
2017-12-30T12:33:05.028Z,48.71
2017-12-30T12:34:04.940Z,48.52
2017-12-30T12:35:57.882Z,51.37
2017-12-30T12:36:57.836Z,52.52
2017-12-30T12:38:50.659Z,48.99
2017-12-30T12:39:50.634Z,52.04
2017-12-30T12:41:43.536Z,51.09
2017-12-30T12:42:43.492Z,51.85
2017-12-30T12:44:36.364Z,50.23
2017-12-30T12:45:36.345Z,51.76
2017-12-30T12:47:29.281Z,53.19
2017-12-30T12:48:29.183Z,51.85
2017-12-30T12:50:22.116Z,51.37
2017-12-30T12:51:22.051Z,50.04
2017-12-30T12:53:15.027Z,51.85
2017-12-30T12:54:14.987Z,52.14
2017-12-30T12:56:07.893Z,55.09
2017-12-30T12:57:07.838Z,53.95
2017-12-30T12:59:00.730Z,53.66
2017-12-30T13:00:00.692Z,54.80
2017-12-30T13:01:53.620Z,54.71
2017-12-30T13:02:53.541Z,55.00
2017-12-30T13:04:46.420Z,57.09
2017-12-30T13:05:46.394Z,58.24
2017-12-30T13:07:40.314Z,57.50
2017-12-30T13:08:40.269Z,58.26
2017-12-30T13:10:33.173Z,61.13
2017-12-30T13:11:33.120Z,60.75
2017-12-30T13:13:25.995Z,59.22
2017-12-30T13:14:26.022Z,61.22
2017-12-30T13:16:18.869Z,59.70
2017-12-30T13:17:18.873Z,59.31
2017-12-30T13:19:11.699Z,61.32
2017-12-30T13:20:11.669Z,60.94
2017-12-30T13:22:04.606Z,58.65
2017-12-30T13:23:04.518Z,62.27
2017-12-30T13:24:57.464Z,59.89
2017-12-30T13:25:57.368Z,61.04
2017-12-30T13:27:50.265Z,62.18
2017-12-30T13:28:50.233Z,63.42
2017-12-30T13:30:43.122Z,61.89
2017-12-30T13:31:43.069Z,64.28
2017-12-30T13:33:36.012Z,62.84
2017-12-30T13:34:35.929Z,61.99
2017-12-30T13:36:28.824Z,65.80
2017-12-30T13:37:28.771Z,67.14
2017-12-30T13:39:21.650Z,67.71
2017-12-30T13:40:21.676Z,66.18
2017-12-30T13:42:14.570Z,66.66
2017-12-30T13:43:14.477Z,65.99
2017-12-30T13:45:07.519Z,68.95
2017-12-30T13:46:07.419Z,68.09
2017-12-30T13:48:00.301Z,69.62
2017-12-30T13:49:00.271Z,68.38
2017-12-30T13:50:53.220Z,67.71
2017-12-30T13:51:53.140Z,72.38
2017-12-30T13:53:46.001Z,73.14
2017-12-30T13:54:45.973Z,72.57
2017-12-30T13:56:38.921Z,78.58
2017-12-30T13:57:38.827Z,75.95
2017-12-30T13:59:31.715Z,74.86
2017-12-30T14:00:31.676Z,74.48
2017-12-30T14:02:24.583Z,73.24
2017-12-30T14:03:24.528Z,72.86
2017-12-30T14:05:17.483Z,74.10
2017-12-30T14:06:17.376Z,73.24
2017-12-30T14:08:10.326Z,75.15
2017-12-30T14:09:10.231Z,72.67
2017-12-30T14:11:03.131Z,74.10
2017-12-30T14:12:03.087Z,74.96
2017-12-30T14:13:55.957Z,72.96
2017-12-30T14:14:55.985Z,72.38
2017-12-30T14:16:48.875Z,73.24
2017-12-30T14:17:48.783Z,73.72
2017-12-30T14:19:41.666Z,76.29
2017-12-30T14:20:41.695Z,75.43
2017-12-30T14:22:34.530Z,75.34
2017-12-30T14:23:34.486Z,75.53
2017-12-30T14:25:27.423Z,73.62
2017-12-30T14:26:27.335Z,75.81
2017-12-30T14:28:20.211Z,76.29
2017-12-30T14:29:20.180Z,77.19
2017-12-30T14:31:13.128Z,76.01
2017-12-30T14:32:13.040Z,75.85
2017-12-30T14:34:05.914Z,76.48
2017-12-30T14:35:05.942Z,75.43
2017-12-30T14:36:58.787Z,76.67
2017-12-30T14:37:58.735Z,76.96
2017-12-30T14:39:51.612Z,73.05
2017-12-30T14:40:51.651Z,73.14
2017-12-30T14:42:44.482Z,75.15
2017-12-30T14:43:44.446Z,76.20
2017-12-30T14:45:37.286Z,76.01
2017-12-30T14:46:37.238Z,73.05
2017-12-30T14:48:30.059Z,77.82
2017-12-30T14:49:30.028Z,73.81
2017-12-30T14:51:22.877Z,77.06
2017-12-30T14:52:22.823Z,76.62
2017-12-30T14:54:15.667Z,77.82
2017-12-30T14:55:15.630Z,78.52
2017-12-30T14:57:08.466Z,77.91
2017-12-30T14:58:08.415Z,80.01
2017-12-30T15:00:01.527Z,78.49
2017-12-30T15:01:01.437Z,79.06
2017-12-30T15:02:54.318Z,77.62
2017-12-30T15:03:54.339Z,76.57
2017-12-30T15:05:47.186Z,78.01
2017-12-30T15:06:47.192Z,76.67
2017-12-30T15:08:40.015Z,79.06
2017-12-30T15:09:40.029Z,77.47
2017-12-30T15:11:32.890Z,79.06
2017-12-30T15:12:32.844Z,76.77
2017-12-30T15:14:25.745Z,75.43
2017-12-30T15:15:25.686Z,77.34
2017-12-30T15:17:18.628Z,76.10
2017-12-30T15:18:18.546Z,77.25
2017-12-30T15:20:11.481Z,79.25
2017-12-30T15:21:11.391Z,78.49
2017-12-30T15:23:04.339Z,77.06
2017-12-30T15:24:04.237Z,79.25
2017-12-30T15:25:57.150Z,79.72
2017-12-30T15:26:57.095Z,80.68
2017-12-30T15:28:49.969Z,80.20
2017-12-30T15:29:49.936Z,79.91
2017-12-30T15:31:42.888Z,80.11
2017-12-30T15:32:42.799Z,80.20
2017-12-30T15:34:35.734Z,79.25
2017-12-30T15:35:35.643Z,79.35
2017-12-30T15:37:28.546Z,82.30
2017-12-30T15:38:28.493Z,80.77
2017-12-30T15:40:21.404Z,81.25
2017-12-30T15:41:21.360Z,80.49
2017-12-30T15:43:14.229Z,80.39
2017-12-30T15:44:14.246Z,81.15
2017-12-30T15:46:07.091Z,80.87
2017-12-30T15:47:07.048Z,82.40
2017-12-30T15:48:59.984Z,81.29
2017-12-30T15:49:59.896Z,82.30
2017-12-30T15:51:52.798Z,80.58
2017-12-30T15:52:52.761Z,79.91
2017-12-30T15:54:45.625Z,80.58
2017-12-30T15:55:45.592Z,81.54
2017-12-30T15:57:38.538Z,81.15
2017-12-30T15:58:38.440Z,81.35
2017-12-30T16:00:31.386Z,79.72
2017-12-30T16:01:31.297Z,81.73
2017-12-30T16:03:24.242Z,81.44
2017-12-30T16:04:24.148Z,80.68
2017-12-30T16:06:17.085Z,81.92
2017-12-30T16:07:16.997Z,81.06
2017-12-30T16:09:09.872Z,82.40
2017-12-30T16:10:09.854Z,81.06
2017-12-30T16:12:03.776Z,82.30
2017-12-30T16:13:03.729Z,83.54
2017-12-30T16:14:56.668Z,82.49
2017-12-30T16:15:56.575Z,83.44
2017-12-30T16:17:49.521Z,83.29
2017-12-30T16:18:49.424Z,83.96
2017-12-30T16:20:42.570Z,84.16
2017-12-30T16:21:42.370Z,84.25
2017-12-30T16:23:35.250Z,81.63
2017-12-30T16:24:35.381Z,82.87
2017-12-30T16:26:28.221Z,84.30
2017-12-30T16:27:28.175Z,83.64
2017-12-30T16:29:21.150Z,84.34
2017-12-30T16:30:21.129Z,83.77
2017-12-30T16:32:14.130Z,83.77
2017-12-30T16:33:14.081Z,81.54
2017-12-30T16:35:07.129Z,83.64
2017-12-30T16:36:06.959Z,83.01
2017-12-30T16:37:59.915Z,84.06
2017-12-30T16:39:00.058Z,83.67
2017-12-30T16:40:52.822Z,82.20
2017-12-30T16:41:52.896Z,82.97
2017-12-30T16:43:45.644Z,82.63
2017-12-30T16:44:45.747Z,84.16
2017-12-30T16:46:39.565Z,82.15
2017-12-30T16:47:39.140Z,83.16
2017-12-30T16:49:32.199Z,83.77
2017-12-30T16:50:31.999Z,84.34
2017-12-30T16:52:24.862Z,82.34
2017-12-30T16:53:24.805Z,84.16
2017-12-30T16:55:17.652Z,83.01
2017-12-30T16:56:17.614Z,82.91
2017-12-30T16:58:10.422Z,83.96
2017-12-30T16:59:10.389Z,84.53
2017-12-30T17:01:03.235Z,84.63
2017-12-30T17:02:03.180Z,82.24
2017-12-30T17:03:56.007Z,83.87
2017-12-30T17:04:55.985Z,82.53
2017-12-30T17:06:48.833Z,82.91
2017-12-30T17:07:48.779Z,83.77
2017-12-30T17:09:42.087Z,82.63
2017-12-30T17:10:41.860Z,82.63
2017-12-30T17:12:34.714Z,82.43
2017-12-30T17:13:34.650Z,83.48
2017-12-30T17:15:27.849Z,84.25
2017-12-30T17:16:27.661Z,82.43
2017-12-30T17:18:20.651Z,83.48
2017-12-30T17:19:20.770Z,83.39
2017-12-30T17:21:13.615Z,84.16
2017-12-30T17:22:13.721Z,82.91
2017-12-30T17:24:06.542Z,82.24
2017-12-30T17:25:06.517Z,83.48
2017-12-30T17:26:59.518Z,82.63
2017-12-30T17:27:59.464Z,82.24
2017-12-30T17:29:52.304Z,82.06
2017-12-30T17:30:52.272Z,82.43
2017-12-30T17:32:45.114Z,82.15
2017-12-30T17:33:45.068Z,82.72
2017-12-30T17:35:37.905Z,83.48
2017-12-30T17:36:37.856Z,81.01
2017-12-30T17:38:30.963Z,81.38
2017-12-30T17:39:30.880Z,82.91
2017-12-30T17:41:23.874Z,81.86
2017-12-30T17:42:23.820Z,82.06
2017-12-30T17:44:16.699Z,82.24
2017-12-30T17:45:16.678Z,81.29
2017-12-30T17:47:09.787Z,82.53
2017-12-30T17:48:09.700Z,82.82
2017-12-30T17:50:02.508Z,82.24
2017-12-30T17:51:02.464Z,82.34
2017-12-30T17:52:55.378Z,81.58
2017-12-30T17:53:55.329Z,81.58
2017-12-30T17:55:48.373Z,81.86
2017-12-30T17:56:48.185Z,81.67
2017-12-30T17:58:41.223Z,81.86
2017-12-30T17:59:41.135Z,81.29
2017-12-30T18:01:34.036Z,80.62
2017-12-30T18:02:33.984Z,80.72
2017-12-30T18:04:26.928Z,81.58
2017-12-30T18:05:26.850Z,80.81
2017-12-30T18:07:19.758Z,81.01
2017-12-30T18:08:19.687Z,80.24
2017-12-30T18:10:12.708Z,81.25
2017-12-30T18:11:12.541Z,80.39
2017-12-30T18:13:05.410Z,80.91
2017-12-30T18:14:05.383Z,80.30
2017-12-30T18:15:58.331Z,80.05
2017-12-30T18:16:58.236Z,80.20
2017-12-30T18:18:51.184Z,79.82
2017-12-30T18:19:51.084Z,80.05
2017-12-30T18:21:44.029Z,79.86
2017-12-30T18:22:43.937Z,80.72
2017-12-30T18:24:36.917Z,79.96
2017-12-30T18:25:36.908Z,79.96
2017-12-30T18:27:29.934Z,80.72
2017-12-30T18:28:29.844Z,81.01
2017-12-30T18:30:22.887Z,80.72
2017-12-30T18:31:22.795Z,80.15
2017-12-30T18:33:15.775Z,80.62
2017-12-30T18:34:15.806Z,80.33